Verda, Louisiana
Current Conditions -  °F | °C
As of 1:55 PM on Wednesday 17 Dec 2014 (Local Time) from KIER Reporting Station
Overcast Overcast  
Wind Chill: 53°   Ceiling: 10000
Heat Index: 53°   Visibility: 10mi
Dew Point: 40°   Wind: 6mph
Humidity: 61%   Direction: 110°ESE
Pressure: 30.21"   Gusts: NA
Location:  31.7°N, 92.77°W
Report Text: KIER 171955Z AUTO 11005KT 10SM OVC100 12/05 A3021 RMK AO2 T01190047
Loading
Personal Weather Stations






























Interactive Weather Map New forecast layout! Learn more

10-Day Weather Forecast

Advertisements
Track Severe Weather on mobile